Murphy's Hourly Summary for Thursday, April 13, 2017
Hour Temp
(f)
RH
(%)
Solar Rad.
(MJ/m2)
Rainfall
(in)
Wind
(mph)
4/13/2017 12:00 AM 62 90 0 0 0
4/13/2017 1:00 AM 63 89 0 0 0.02
4/13/2017 2:00 AM 63 89 0 0 0.01
4/13/2017 3:00 AM 62 93 0 0 0.04
4/13/2017 4:00 AM 62 93 0 0 0
4/13/2017 5:00 AM 62 94 0 0 0.13
4/13/2017 6:00 AM 62 95 0 0 0.02
4/13/2017 7:00 AM 62 95 0 0 0.01
4/13/2017 8:00 AM 62 95 0.06 0 0.98
4/13/2017 9:00 AM 65 90 0.55 0 2.72
4/13/2017 10:00 AM 69 80 1.26 0 4.05
4/13/2017 11:00 AM 71 71 1.98 0 5.75
4/13/2017 12:00 PM 74 63 2.73 0 5.91
4/13/2017 1:00 PM 75 60 2.92 0 6.18
4/13/2017 2:00 PM 76 56 2.82 0 6.29
4/13/2017 3:00 PM 77 55 2.66 0 6.13
4/13/2017 4:00 PM 77 55 2.04 0 6.59
4/13/2017 5:00 PM 77 52 1.31 0 5.77
4/13/2017 6:00 PM 77 52 1.04 0 5.65
4/13/2017 7:00 PM 76 54 0.51 0 5.18
4/13/2017 8:00 PM 75 56 0.12 0 4.26
4/13/2017 9:00 PM 73 60 0 0 2.35
4/13/2017 10:00 PM 71 64 0 0 2.08
4/13/2017 11:00 PM 70 65 0 0 2.07
Data Summary 69 73 20.00 0.00 3.01